AAL7G KATL-KLAX
Flight info
| Callsign | AAL7G |
|---|---|
| Flight time | N/A |
| Altitude | 34000 |
| Route | NASSA2 YAALL J14 PNH ACH ABQ J78 DRK GABBL HLYWD1 |
| Aircraft | B78X/H-SDE1E2E3FGHIJ2J3J4J5M1RWXY/LB1D1 |
Departure
| Time | 2026-05-05 02:45 |
|---|---|
| Airport | Hartsfield Jackson Atlanta International Airport (KATL) |
Arrival
| Time | N/A |
|---|---|
| Airport | Los Angeles International Airport (KLAX) |
| Time | Latitude | Longitude | Altitude | Speed | Heading |
|---|---|---|---|---|---|
| 2026-05-05 02:12 | 33.63938 | -84.41874 | 1012 ft | 0 kts | 303° |
| 2026-05-05 02:31 | 33.63932 | -84.41864 | 1012 ft | 2 kts | 300° |
| 2026-05-05 02:32 | 33.63925 | -84.41847 | 1012 ft | 2 kts | 295° |
| 2026-05-05 02:32 | 33.63917 | -84.41829 | 1012 ft | 3 kts | 252° |
| 2026-05-05 02:32 | 33.63926 | -84.41817 | 1012 ft | 0 kts | 186° |
| 2026-05-05 02:38 | 33.63925 | -84.41817 | 1012 ft | 1 kts | 186° |
| 2026-05-05 02:38 | 33.63898 | -84.41820 | 1012 ft | 7 kts | 185° |
| 2026-05-05 02:39 | 33.63831 | -84.41825 | 1013 ft | 12 kts | 181° |
| 2026-05-05 02:39 | 33.63725 | -84.41820 | 1013 ft | 18 kts | 179° |
| 2026-05-05 02:39 | 33.63669 | -84.41801 | 1012 ft | 3 kts | 136° |
| 2026-05-05 02:39 | 33.63661 | -84.41755 | 1012 ft | 8 kts | 96° |
| 2026-05-05 02:40 | 33.63656 | -84.41660 | 1012 ft | 14 kts | 90° |
| 2026-05-05 02:40 | 33.63655 | -84.41514 | 1012 ft | 20 kts | 90° |
| 2026-05-05 02:40 | 33.63655 | -84.41322 | 1012 ft | 26 kts | 89° |
| 2026-05-05 02:40 | 33.63656 | -84.41088 | 1012 ft | 30 kts | 92° |
| 2026-05-05 02:41 | 33.63654 | -84.40959 | 1012 ft | 2 kts | 88° |
| 2026-05-05 02:41 | 33.63656 | -84.40916 | 1012 ft | 8 kts | 84° |
| 2026-05-05 02:41 | 33.63657 | -84.40824 | 1012 ft | 14 kts | 100° |
| 2026-05-05 02:41 | 33.63587 | -84.40745 | 1013 ft | 16 kts | 170° |
| 2026-05-05 02:42 | 33.63470 | -84.40788 | 1013 ft | 20 kts | 228° |
| 2026-05-05 02:42 | 33.63464 | -84.40952 | 1013 ft | 22 kts | 275° |
| 2026-05-05 02:42 | 33.63469 | -84.41106 | 1011 ft | 0 kts | 266° |
| 2026-05-05 02:44 | 33.63468 | -84.41227 | 1011 ft | 51 kts | 270° |
| 2026-05-05 02:45 | 33.63468 | -84.42001 | 1013 ft | 133 kts | 269° |
| 2026-05-05 02:45 | 33.63456 | -84.43352 | 1292 ft | 176 kts | 267° |
| 2026-05-05 02:45 | 33.63469 | -84.44885 | 1941 ft | 206 kts | 272° |
| 2026-05-05 02:45 | 33.63826 | -84.46631 | 2206 ft | 203 kts | 278° |
| 2026-05-05 02:46 | 33.64042 | -84.48298 | 2823 ft | 208 kts | 272° |
| 2026-05-05 02:46 | 33.64148 | -84.50040 | 3362 ft | 208 kts | 269° |
| 2026-05-05 02:46 | 33.64240 | -84.51811 | 3927 ft | 213 kts | 270° |
| 2026-05-05 02:46 | 33.64352 | -84.53607 | 4510 ft | 217 kts | 270° |
| 2026-05-05 02:47 | 33.64469 | -84.55439 | 5102 ft | 229 kts | 271° |
| 2026-05-05 02:47 | 33.64592 | -84.57444 | 5727 ft | 252 kts | 271° |
| 2026-05-05 02:47 | 33.64728 | -84.59618 | 6383 ft | 264 kts | 272° |
| 2026-05-05 02:47 | 33.64870 | -84.61860 | 6984 ft | 272 kts | 272° |
| 2026-05-05 02:48 | 33.65010 | -84.64078 | 7580 ft | 273 kts | 272° |
| 2026-05-05 02:48 | 33.65150 | -84.66354 | 8276 ft | 274 kts | 272° |
| 2026-05-05 02:48 | 33.65292 | -84.68666 | 8954 ft | 277 kts | 272° |
| 2026-05-05 02:48 | 33.65434 | -84.70974 | 9649 ft | 281 kts | 273° |
| 2026-05-05 02:49 | 33.65580 | -84.73335 | 10340 ft | 282 kts | 273° |
| 2026-05-05 02:49 | 33.65725 | -84.75715 | 11028 ft | 291 kts | 273° |
| 2026-05-05 02:49 | 33.65876 | -84.78201 | 11729 ft | 305 kts | 273° |
| 2026-05-05 02:49 | 33.66034 | -84.80801 | 12447 ft | 319 kts | 273° |
| 2026-05-05 02:50 | 33.66199 | -84.83517 | 13192 ft | 331 kts | 273° |
| 2026-05-05 02:50 | 33.66367 | -84.86313 | 13969 ft | 342 kts | 273° |
| 2026-05-05 02:50 | 33.66539 | -84.89167 | 14645 ft | 352 kts | 273° |
| 2026-05-05 02:50 | 33.66717 | -84.92142 | 15344 ft | 359 kts | 273° |
| 2026-05-05 02:51 | 33.66896 | -84.95137 | 16052 ft | 363 kts | 273° |
| 2026-05-05 02:51 | 33.67076 | -84.98166 | 16785 ft | 365 kts | 273° |
| 2026-05-05 02:51 | 33.67257 | -85.01231 | 17519 ft | 369 kts | 273° |
| 2026-05-05 02:51 | 33.67439 | -85.04328 | 18274 ft | 372 kts | 273° |
| 2026-05-05 02:52 | 33.67622 | -85.07456 | 18948 ft | 375 kts | 273° |
| 2026-05-05 02:52 | 33.67803 | -85.10557 | 19607 ft | 377 kts | 273° |
| 2026-05-05 02:52 | 33.67989 | -85.13749 | 20302 ft | 380 kts | 274° |
| 2026-05-05 02:52 | 33.68173 | -85.16930 | 21015 ft | 382 kts | 274° |
| 2026-05-05 02:53 | 33.68354 | -85.20083 | 21752 ft | 384 kts | 274° |
| 2026-05-05 02:53 | 33.68538 | -85.23283 | 22500 ft | 385 kts | 274° |
| 2026-05-05 02:53 | 33.68722 | -85.26509 | 23263 ft | 385 kts | 274° |
| 2026-05-05 02:53 | 33.68904 | -85.29712 | 23976 ft | 385 kts | 274° |
| 2026-05-05 02:54 | 33.69050 | -85.32308 | 24507 ft | 384 kts | 274° |
| 2026-05-05 02:54 | 33.69231 | -85.35512 | 25170 ft | 383 kts | 274° |
| 2026-05-05 02:54 | 33.69410 | -85.38701 | 25851 ft | 381 kts | 274° |
| 2026-05-05 02:54 | 33.69587 | -85.41872 | 26552 ft | 379 kts | 275° |
| 2026-05-05 02:55 | 33.69762 | -85.45024 | 27257 ft | 376 kts | 275° |
| 2026-05-05 02:55 | 33.69935 | -85.48153 | 27993 ft | 373 kts | 275° |
| 2026-05-05 02:55 | 33.70103 | -85.51208 | 28728 ft | 370 kts | 275° |
| 2026-05-05 02:55 | 33.70271 | -85.54288 | 29470 ft | 366 kts | 276° |
| 2026-05-05 02:56 | 33.70439 | -85.57347 | 29847 ft | 373 kts | 276° |
| 2026-05-05 02:56 | 33.70605 | -85.60417 | 30342 ft | 359 kts | 276° |
| 2026-05-05 02:56 | 33.70762 | -85.63374 | 30965 ft | 352 kts | 277° |
| 2026-05-05 02:56 | 33.70921 | -85.66306 | 31633 ft | 349 kts | 278° |
| 2026-05-05 02:57 | 33.71077 | -85.69198 | 32316 ft | 345 kts | 278° |
| 2026-05-05 02:57 | 33.71229 | -85.72048 | 33014 ft | 340 kts | 279° |
| 2026-05-05 02:57 | 33.71376 | -85.74825 | 33701 ft | 337 kts | 279° |
| 2026-05-05 02:57 | 33.71528 | -85.77648 | 34023 ft | 342 kts | 280° |
| 2026-05-05 02:58 | 33.71676 | -85.80378 | 34033 ft | 354 kts | 279° |
| 2026-05-05 02:58 | 33.71894 | -85.84540 | 34036 ft | 372 kts | 279° |
| 2026-05-05 02:58 | 33.72056 | -85.87690 | 34041 ft | 383 kts | 279° |
| 2026-05-05 02:59 | 33.72224 | -85.90930 | 34048 ft | 395 kts | 279° |
| 2026-05-05 02:59 | 33.72572 | -85.97692 | 34041 ft | 416 kts | 279° |
| 2026-05-05 03:00 | 33.72932 | -86.04789 | 34034 ft | 434 kts | 278° |
| 2026-05-05 03:00 | 33.73281 | -86.11785 | 34043 ft | 439 kts | 278° |
| 2026-05-05 03:01 | 33.73645 | -86.19121 | 34037 ft | 439 kts | 278° |
| 2026-05-05 03:01 | 33.74005 | -86.26442 | 34039 ft | 438 kts | 278° |
| 2026-05-05 03:02 | 33.74358 | -86.33709 | 34037 ft | 437 kts | 278° |
| 2026-05-05 03:02 | 33.74706 | -86.40986 | 34034 ft | 436 kts | 278° |
| 2026-05-05 03:03 | 33.75051 | -86.48260 | 34022 ft | 435 kts | 278° |
| 2026-05-05 03:03 | 33.75392 | -86.55543 | 34026 ft | 435 kts | 278° |
| 2026-05-05 03:04 | 33.75725 | -86.62779 | 34023 ft | 433 kts | 279° |
| 2026-05-05 03:04 | 33.76052 | -86.69964 | 34026 ft | 432 kts | 279° |
| 2026-05-05 03:05 | 33.76376 | -86.77168 | 34024 ft | 430 kts | 279° |
| 2026-05-05 03:05 | 33.76695 | -86.84332 | 34031 ft | 428 kts | 279° |
| 2026-05-05 03:06 | 33.77008 | -86.91481 | 34024 ft | 428 kts | 279° |
| 2026-05-05 03:06 | 33.77314 | -86.98557 | 34001 ft | 426 kts | 279° |
| 2026-05-05 03:07 | 33.77618 | -87.05680 | 33986 ft | 424 kts | 279° |
| 2026-05-05 03:07 | 33.77915 | -87.12729 | 33992 ft | 423 kts | 279° |
| 2026-05-05 03:08 | 33.78208 | -87.19785 | 33995 ft | 422 kts | 279° |
| 2026-05-05 03:08 | 33.78496 | -87.26821 | 34007 ft | 421 kts | 279° |
| 2026-05-05 03:09 | 33.78779 | -87.33830 | 34007 ft | 419 kts | 279° |
| 2026-05-05 03:09 | 33.79057 | -87.40824 | 33999 ft | 418 kts | 279° |
| 2026-05-05 03:10 | 33.79440 | -87.47728 | 34001 ft | 412 kts | 284° |
| 2026-05-05 03:10 | 33.80672 | -87.54404 | 33998 ft | 408 kts | 288° |
| 2026-05-05 03:11 | 33.82042 | -87.61041 | 33987 ft | 408 kts | 288° |
| 2026-05-05 03:11 | 33.83424 | -87.67657 | 33968 ft | 407 kts | 288° |
| 2026-05-05 03:12 | 33.84791 | -87.74269 | 33954 ft | 407 kts | 288° |
| 2026-05-05 03:12 | 33.86148 | -87.80825 | 33954 ft | 406 kts | 288° |
| 2026-05-05 03:13 | 33.87506 | -87.87420 | 33950 ft | 405 kts | 288° |
| 2026-05-05 03:13 | 33.88857 | -87.93992 | 33948 ft | 405 kts | 288° |
| 2026-05-05 03:14 | 33.90207 | -88.00582 | 33943 ft | 405 kts | 288° |
| 2026-05-05 03:14 | 33.91328 | -88.06064 | 33942 ft | 405 kts | 288° |
| 2026-05-05 03:15 | 33.92888 | -88.13723 | 33937 ft | 405 kts | 288° |
| 2026-05-05 03:15 | 33.94226 | -88.20313 | 33936 ft | 405 kts | 288° |
| 2026-05-05 03:16 | 33.95337 | -88.25798 | 33939 ft | 405 kts | 288° |
| 2026-05-05 03:16 | 33.96670 | -88.32396 | 33936 ft | 405 kts | 288° |
| 2026-05-05 03:17 | 33.98001 | -88.39007 | 33938 ft | 406 kts | 288° |
| 2026-05-05 03:17 | 33.99331 | -88.45629 | 33936 ft | 406 kts | 288° |
| 2026-05-05 03:18 | 34.00647 | -88.52200 | 33936 ft | 406 kts | 288° |
| 2026-05-05 03:18 | 34.01967 | -88.58815 | 33944 ft | 406 kts | 288° |
| 2026-05-05 03:19 | 34.03944 | -88.68755 | 33950 ft | 406 kts | 288° |
| 2026-05-05 03:19 | 34.05251 | -88.75350 | 33953 ft | 406 kts | 288° |
| 2026-05-05 03:20 | 34.06562 | -88.81988 | 33958 ft | 406 kts | 288° |
| 2026-05-05 03:20 | 34.07867 | -88.88616 | 33952 ft | 406 kts | 288° |
| 2026-05-05 03:21 | 34.09172 | -88.95264 | 33952 ft | 406 kts | 288° |
| 2026-05-05 03:21 | 34.10464 | -89.01864 | 33948 ft | 406 kts | 288° |
| 2026-05-05 03:22 | 34.11762 | -89.08516 | 33941 ft | 406 kts | 288° |
| 2026-05-05 03:22 | 34.13049 | -89.15130 | 33936 ft | 407 kts | 288° |
| 2026-05-05 03:23 | 34.14338 | -89.21778 | 33931 ft | 407 kts | 288° |
| 2026-05-05 03:23 | 34.15625 | -89.28433 | 33941 ft | 406 kts | 288° |
| 2026-05-05 03:24 | 34.16907 | -89.35083 | 33945 ft | 407 kts | 288° |
| 2026-05-05 03:24 | 34.18186 | -89.41740 | 33949 ft | 406 kts | 288° |
| 2026-05-05 03:25 | 34.19461 | -89.48396 | 33952 ft | 406 kts | 288° |
| 2026-05-05 03:25 | 34.20864 | -89.54993 | 33963 ft | 404 kts | 290° |
| 2026-05-05 03:26 | 34.22431 | -89.61481 | 33964 ft | 405 kts | 290° |
| 2026-05-05 03:26 | 34.24021 | -89.68026 | 33960 ft | 404 kts | 290° |
| 2026-05-05 03:27 | 34.25604 | -89.74565 | 33941 ft | 405 kts | 290° |
| 2026-05-05 03:27 | 34.27171 | -89.81060 | 33944 ft | 405 kts | 290° |
| 2026-05-05 03:28 | 34.28748 | -89.87609 | 33941 ft | 405 kts | 290° |
| 2026-05-05 03:28 | 34.30319 | -89.94152 | 33939 ft | 404 kts | 290° |
| 2026-05-05 03:29 | 34.31877 | -90.00658 | 33939 ft | 404 kts | 290° |
| 2026-05-05 03:29 | 34.32938 | -90.05096 | 33935 ft | 404 kts | 290° |
| 2026-05-05 03:30 | 34.34496 | -90.11632 | 33885 ft | 404 kts | 290° |
| 2026-05-05 03:30 | 34.36043 | -90.18135 | 33874 ft | 403 kts | 290° |
| 2026-05-05 03:31 | 34.37589 | -90.24658 | 33879 ft | 403 kts | 290° |
| 2026-05-05 03:31 | 34.39135 | -90.31190 | 33865 ft | 405 kts | 290° |
| 2026-05-05 03:32 | 34.39919 | -90.34504 | 33745 ft | 411 kts | 290° |
| 2026-05-05 03:32 | 34.40698 | -90.37819 | 33730 ft | 407 kts | 290° |
| 2026-05-05 03:32 | 34.42251 | -90.44414 | 33739 ft | 409 kts | 290° |
| 2026-05-05 03:33 | 34.43814 | -90.51073 | 33739 ft | 411 kts | 290° |
| 2026-05-05 03:33 | 34.45373 | -90.57738 | 33738 ft | 410 kts | 290° |
| 2026-05-05 03:34 | 34.46918 | -90.64355 | 33737 ft | 410 kts | 290° |
| 2026-05-05 03:34 | 34.48468 | -90.71015 | 33733 ft | 410 kts | 290° |
| 2026-05-05 03:35 | 34.50014 | -90.77675 | 33730 ft | 410 kts | 289° |
| 2026-05-05 03:35 | 34.51546 | -90.84292 | 33716 ft | 410 kts | 289° |
| 2026-05-05 03:36 | 34.53082 | -90.90944 | 33708 ft | 410 kts | 289° |
| 2026-05-05 03:36 | 34.54564 | -90.97379 | 33703 ft | 410 kts | 289° |
| 2026-05-05 03:37 | 34.56096 | -91.04047 | 33699 ft | 410 kts | 289° |
| 2026-05-05 03:37 | 34.57615 | -91.10678 | 33695 ft | 410 kts | 289° |
| 2026-05-05 03:38 | 34.59148 | -91.17390 | 33691 ft | 410 kts | 289° |
| 2026-05-05 03:38 | 34.60659 | -91.24023 | 33690 ft | 410 kts | 289° |
| 2026-05-05 03:39 | 34.62177 | -91.30706 | 33692 ft | 411 kts | 289° |
| 2026-05-05 03:39 | 34.63694 | -91.37403 | 33698 ft | 411 kts | 289° |
| 2026-05-05 03:40 | 34.65209 | -91.44109 | 33697 ft | 411 kts | 289° |
| 2026-05-05 03:40 | 34.66720 | -91.50814 | 33699 ft | 411 kts | 289° |
| 2026-05-05 03:41 | 34.68227 | -91.57525 | 33703 ft | 412 kts | 289° |
| 2026-05-05 03:41 | 34.69724 | -91.64208 | 33706 ft | 412 kts | 289° |
| 2026-05-05 03:42 | 34.71225 | -91.70925 | 33693 ft | 412 kts | 289° |
| 2026-05-05 03:42 | 34.72726 | -91.77664 | 33684 ft | 412 kts | 289° |
| 2026-05-05 03:43 | 34.74223 | -91.84402 | 33679 ft | 412 kts | 289° |
| 2026-05-05 03:43 | 34.75715 | -91.91136 | 33667 ft | 413 kts | 289° |
| 2026-05-05 03:44 | 34.77206 | -91.97888 | 33673 ft | 413 kts | 289° |
| 2026-05-05 03:44 | 34.78686 | -92.04610 | 33670 ft | 413 kts | 289° |
| 2026-05-05 03:45 | 34.80161 | -92.11326 | 33680 ft | 413 kts | 289° |
| 2026-05-05 03:45 | 34.81282 | -92.18206 | 33703 ft | 418 kts | 282° |
| 2026-05-05 03:46 | 34.81927 | -92.25246 | 33695 ft | 418 kts | 282° |
| 2026-05-05 03:46 | 34.82562 | -92.32286 | 33695 ft | 418 kts | 282° |
| 2026-05-05 03:47 | 34.83189 | -92.39276 | 33692 ft | 418 kts | 282° |
| 2026-05-05 03:47 | 34.83821 | -92.46340 | 33681 ft | 418 kts | 282° |
| 2026-05-05 03:48 | 34.84447 | -92.53403 | 33669 ft | 419 kts | 281° |
| 2026-05-05 03:48 | 34.85063 | -92.60407 | 33666 ft | 419 kts | 281° |
| 2026-05-05 03:49 | 34.85681 | -92.67468 | 33663 ft | 419 kts | 282° |
| 2026-05-05 03:49 | 34.86293 | -92.74522 | 33653 ft | 418 kts | 281° |
| 2026-05-05 03:50 | 34.86902 | -92.81577 | 33650 ft | 418 kts | 281° |
| 2026-05-05 03:50 | 34.87502 | -92.88582 | 33637 ft | 418 kts | 281° |
| 2026-05-05 03:51 | 34.88104 | -92.95634 | 33630 ft | 418 kts | 281° |
| 2026-05-05 03:51 | 34.88700 | -93.02694 | 33633 ft | 419 kts | 281° |
| 2026-05-05 03:52 | 34.89291 | -93.09750 | 33626 ft | 419 kts | 281° |
| 2026-05-05 03:52 | 34.89881 | -93.16815 | 33625 ft | 418 kts | 281° |
| 2026-05-05 03:53 | 34.90459 | -93.23811 | 33621 ft | 418 kts | 281° |
| 2026-05-05 03:53 | 34.91039 | -93.30866 | 33613 ft | 418 kts | 281° |
| 2026-05-05 03:54 | 34.91614 | -93.37915 | 33607 ft | 418 kts | 281° |
| 2026-05-05 03:54 | 34.92185 | -93.44963 | 33605 ft | 417 kts | 281° |
| 2026-05-05 03:55 | 34.92746 | -93.51948 | 33602 ft | 417 kts | 281° |
| 2026-05-05 03:55 | 34.93309 | -93.58994 | 33597 ft | 416 kts | 281° |
| 2026-05-05 03:56 | 34.93866 | -93.66034 | 33593 ft | 416 kts | 281° |
| 2026-05-05 03:56 | 34.94414 | -93.73006 | 33603 ft | 415 kts | 281° |
| 2026-05-05 03:57 | 34.94961 | -93.80002 | 33601 ft | 415 kts | 280° |
| 2026-05-05 03:57 | 34.95503 | -93.87008 | 33595 ft | 414 kts | 280° |
| 2026-05-05 03:58 | 34.96038 | -93.93958 | 33599 ft | 414 kts | 280° |
| 2026-05-05 03:58 | 34.96572 | -94.00953 | 33603 ft | 414 kts | 280° |
| 2026-05-05 03:59 | 34.97101 | -94.07950 | 33594 ft | 414 kts | 280° |
| 2026-05-05 03:59 | 34.97623 | -94.14898 | 33597 ft | 413 kts | 280° |
| 2026-05-05 04:00 | 34.98146 | -94.21893 | 33601 ft | 414 kts | 280° |
| 2026-05-05 04:00 | 34.98662 | -94.28894 | 33608 ft | 415 kts | 280° |
| 2026-05-05 04:01 | 34.99175 | -94.35870 | 33609 ft | 413 kts | 280° |
| 2026-05-05 04:01 | 34.99684 | -94.42859 | 33611 ft | 412 kts | 280° |
| 2026-05-05 04:02 | 35.00184 | -94.49780 | 33611 ft | 412 kts | 280° |
| 2026-05-05 04:02 | 35.00683 | -94.56754 | 33611 ft | 412 kts | 279° |
| 2026-05-05 04:03 | 35.01094 | -94.62532 | 33610 ft | 412 kts | 279° |
| 2026-05-05 04:03 | 35.01852 | -94.70537 | 33619 ft | 409 kts | 283° |
| 2026-05-05 04:04 | 35.02781 | -94.77391 | 33620 ft | 409 kts | 283° |
| 2026-05-05 04:04 | 35.03561 | -94.83099 | 33616 ft | 409 kts | 283° |
| 2026-05-05 04:05 | 35.04490 | -94.89936 | 33596 ft | 408 kts | 283° |
| 2026-05-05 04:05 | 35.05415 | -94.96777 | 33571 ft | 408 kts | 283° |
| 2026-05-05 04:06 | 35.06335 | -95.03622 | 33577 ft | 409 kts | 283° |
| 2026-05-05 04:06 | 35.07253 | -95.10470 | 33571 ft | 408 kts | 283° |
| 2026-05-05 04:07 | 35.08163 | -95.17284 | 33568 ft | 409 kts | 283° |
| 2026-05-05 04:07 | 35.09074 | -95.24148 | 33564 ft | 409 kts | 283° |
| 2026-05-05 04:08 | 35.09984 | -95.31031 | 33567 ft | 410 kts | 282° |
| 2026-05-05 04:08 | 35.10888 | -95.37901 | 33559 ft | 410 kts | 282° |
| 2026-05-05 04:09 | 35.11791 | -95.44791 | 33558 ft | 412 kts | 282° |
| 2026-05-05 04:09 | 35.12651 | -95.51684 | 33559 ft | 410 kts | 281° |
| 2026-05-05 04:10 | 35.13457 | -95.58593 | 33557 ft | 411 kts | 282° |
| 2026-05-05 04:10 | 35.14284 | -95.65457 | 33555 ft | 411 kts | 281° |
| 2026-05-05 04:11 | 35.15099 | -95.72398 | 33548 ft | 411 kts | 281° |
| 2026-05-05 04:11 | 35.15913 | -95.79289 | 33544 ft | 411 kts | 281° |
| 2026-05-05 04:12 | 35.16727 | -95.86244 | 33536 ft | 412 kts | 281° |
| 2026-05-05 04:12 | 35.17532 | -95.93154 | 33524 ft | 413 kts | 281° |
| 2026-05-05 04:13 | 35.18343 | -96.00145 | 33520 ft | 413 kts | 281° |
| 2026-05-05 04:13 | 35.19144 | -96.07095 | 33514 ft | 413 kts | 281° |
| 2026-05-05 04:14 | 35.19938 | -96.14013 | 33505 ft | 413 kts | 281° |
| 2026-05-05 04:14 | 35.20733 | -96.20975 | 33505 ft | 413 kts | 281° |
| 2026-05-05 04:15 | 35.21526 | -96.27952 | 33502 ft | 413 kts | 281° |
| 2026-05-05 04:15 | 35.22315 | -96.34915 | 33512 ft | 413 kts | 281° |
| 2026-05-05 04:16 | 35.23101 | -96.41898 | 33516 ft | 414 kts | 281° |
| 2026-05-05 04:16 | 35.23876 | -96.48823 | 33529 ft | 413 kts | 281° |
| 2026-05-05 04:17 | 35.24653 | -96.55800 | 33538 ft | 414 kts | 281° |
| 2026-05-05 04:17 | 35.25429 | -96.62798 | 33541 ft | 414 kts | 280° |
| 2026-05-05 04:18 | 35.26201 | -96.69805 | 33541 ft | 415 kts | 280° |
| 2026-05-05 04:18 | 35.26969 | -96.76815 | 33548 ft | 415 kts | 280° |
| 2026-05-05 04:19 | 35.27729 | -96.83793 | 33513 ft | 416 kts | 280° |
| 2026-05-05 04:19 | 35.28492 | -96.90826 | 33519 ft | 416 kts | 280° |
| 2026-05-05 04:20 | 35.29250 | -96.97858 | 33513 ft | 417 kts | 280° |
| 2026-05-05 04:20 | 35.30005 | -97.04905 | 33514 ft | 416 kts | 280° |
| 2026-05-05 04:21 | 35.30752 | -97.11903 | 33501 ft | 417 kts | 280° |
| 2026-05-05 04:21 | 35.31499 | -97.18957 | 33484 ft | 417 kts | 279° |
| 2026-05-05 04:22 | 35.32243 | -97.26013 | 33490 ft | 417 kts | 279° |
| 2026-05-05 04:22 | 35.32982 | -97.33061 | 33497 ft | 417 kts | 279° |
| 2026-05-05 04:23 | 35.33713 | -97.40080 | 33495 ft | 418 kts | 279° |
| 2026-05-05 04:23 | 35.34445 | -97.47147 | 33499 ft | 418 kts | 279° |
| 2026-05-05 04:24 | 35.35174 | -97.54219 | 33495 ft | 418 kts | 279° |
| 2026-05-05 04:25 | 35.35799 | -97.64890 | 33501 ft | 422 kts | 272° |
| 2026-05-05 04:25 | 35.35710 | -97.72096 | 33497 ft | 422 kts | 273° |
| 2026-05-05 04:26 | 35.35602 | -97.79265 | 33476 ft | 423 kts | 272° |
| 2026-05-05 04:26 | 35.35495 | -97.86477 | 33473 ft | 423 kts | 272° |
| 2026-05-05 04:27 | 35.35382 | -97.93695 | 33478 ft | 424 kts | 272° |
| 2026-05-05 04:27 | 35.35264 | -98.00915 | 33478 ft | 424 kts | 272° |
| 2026-05-05 04:28 | 35.35142 | -98.08140 | 33471 ft | 424 kts | 272° |
| 2026-05-05 04:28 | 35.35017 | -98.15320 | 33467 ft | 424 kts | 272° |
| 2026-05-05 04:29 | 35.34887 | -98.22546 | 33452 ft | 424 kts | 272° |
| 2026-05-05 04:29 | 35.34752 | -98.29780 | 33446 ft | 424 kts | 272° |
| 2026-05-05 04:30 | 35.34613 | -98.37007 | 33427 ft | 424 kts | 272° |
| 2026-05-05 04:30 | 35.34470 | -98.44188 | 33441 ft | 424 kts | 272° |
| 2026-05-05 04:31 | 35.34323 | -98.51413 | 33441 ft | 423 kts | 272° |
| 2026-05-05 04:31 | 35.34172 | -98.58590 | 33446 ft | 423 kts | 272° |
| 2026-05-05 04:32 | 35.34016 | -98.65795 | 33452 ft | 423 kts | 272° |
| 2026-05-05 04:32 | 35.33856 | -98.73008 | 33446 ft | 422 kts | 272° |
| 2026-05-05 04:33 | 35.33693 | -98.80168 | 33444 ft | 423 kts | 272° |
| 2026-05-05 04:33 | 35.33525 | -98.87360 | 33429 ft | 423 kts | 272° |
| 2026-05-05 04:34 | 35.33351 | -98.94559 | 33446 ft | 423 kts | 272° |
| 2026-05-05 04:34 | 35.33173 | -99.01783 | 33453 ft | 423 kts | 271° |
| 2026-05-05 04:35 | 35.32992 | -99.08951 | 33472 ft | 424 kts | 271° |
| 2026-05-05 04:35 | 35.32805 | -99.16172 | 33472 ft | 424 kts | 271° |
| 2026-05-05 04:36 | 35.32613 | -99.23414 | 33471 ft | 425 kts | 271° |
| 2026-05-05 04:36 | 35.32417 | -99.30646 | 33465 ft | 425 kts | 271° |
| 2026-05-05 04:37 | 35.32218 | -99.37847 | 33444 ft | 425 kts | 271° |
| 2026-05-05 04:37 | 35.32013 | -99.45095 | 33440 ft | 426 kts | 271° |
| 2026-05-05 04:38 | 35.31804 | -99.52349 | 33435 ft | 426 kts | 271° |
| 2026-05-05 04:38 | 35.31592 | -99.59560 | 33425 ft | 426 kts | 271° |
| 2026-05-05 04:39 | 35.31374 | -99.66824 | 33413 ft | 427 kts | 271° |
| 2026-05-05 04:39 | 35.31151 | -99.74085 | 33400 ft | 427 kts | 271° |
| 2026-05-05 04:40 | 35.30924 | -99.81355 | 33391 ft | 427 kts | 271° |
| 2026-05-05 04:40 | 35.30694 | -99.88581 | 33388 ft | 427 kts | 271° |
| 2026-05-05 04:41 | 35.30458 | -99.95861 | 33392 ft | 427 kts | 270° |
| 2026-05-05 04:41 | 35.30217 | -100.03133 | 33391 ft | 427 kts | 270° |
| 2026-05-05 04:42 | 35.29972 | -100.10422 | 33396 ft | 428 kts | 270° |
| 2026-05-05 04:42 | 35.29724 | -100.17658 | 33394 ft | 428 kts | 270° |
| 2026-05-05 04:43 | 35.29470 | -100.24939 | 33395 ft | 428 kts | 270° |
| 2026-05-05 04:43 | 35.29211 | -100.32240 | 33400 ft | 429 kts | 270° |
| 2026-05-05 04:44 | 35.28949 | -100.39529 | 33401 ft | 429 kts | 270° |
| 2026-05-05 04:44 | 35.28681 | -100.46840 | 33406 ft | 429 kts | 270° |
| 2026-05-05 04:45 | 35.28409 | -100.54154 | 33403 ft | 430 kts | 270° |
| 2026-05-05 04:45 | 35.28133 | -100.61430 | 33407 ft | 431 kts | 270° |
| 2026-05-05 04:46 | 35.27850 | -100.68772 | 33407 ft | 431 kts | 270° |
| 2026-05-05 04:46 | 35.27652 | -100.73875 | 33409 ft | 432 kts | 270° |
| 2026-05-05 04:47 | 35.27361 | -100.81230 | 33412 ft | 432 kts | 270° |
| 2026-05-05 04:47 | 35.27068 | -100.88535 | 33412 ft | 433 kts | 270° |
| 2026-05-05 04:48 | 35.26768 | -100.95903 | 33414 ft | 434 kts | 270° |
| 2026-05-05 04:48 | 35.26475 | -101.03005 | 33414 ft | 434 kts | 270° |
| 2026-05-05 04:49 | 35.26166 | -101.10377 | 33414 ft | 434 kts | 269° |
| 2026-05-05 04:49 | 35.25851 | -101.17767 | 33413 ft | 435 kts | 269° |
| 2026-05-05 04:50 | 35.25534 | -101.25122 | 33411 ft | 435 kts | 269° |
| 2026-05-05 04:50 | 35.25215 | -101.32490 | 33316 ft | 422 kts | 268° |
| 2026-05-05 04:50 | 35.25057 | -101.36010 | 33458 ft | 407 kts | 268° |
| 2026-05-05 04:51 | 35.24900 | -101.39487 | 33476 ft | 412 kts | 268° |
| 2026-05-05 04:51 | 35.24643 | -101.45264 | 33495 ft | 409 kts | 268° |
| 2026-05-05 04:52 | 35.24327 | -101.52222 | 33537 ft | 409 kts | 268° |
| 2026-05-05 04:52 | 35.24008 | -101.59166 | 33567 ft | 409 kts | 268° |
| 2026-05-05 04:53 | 35.23684 | -101.66121 | 33574 ft | 409 kts | 267° |
| 2026-05-05 04:53 | 35.23437 | -101.73076 | 33575 ft | 409 kts | 269° |
| 2026-05-05 04:54 | 35.23268 | -101.79991 | 33574 ft | 409 kts | 269° |
| 2026-05-05 04:54 | 35.23100 | -101.86946 | 33557 ft | 409 kts | 269° |
| 2026-05-05 04:55 | 35.22927 | -101.93905 | 33527 ft | 408 kts | 268° |
| 2026-05-05 04:55 | 35.22751 | -102.00860 | 33492 ft | 408 kts | 268° |
| 2026-05-05 04:56 | 35.22571 | -102.07761 | 33458 ft | 408 kts | 268° |
| 2026-05-05 04:56 | 35.22386 | -102.14721 | 33433 ft | 408 kts | 268° |
| 2026-05-05 04:57 | 35.22199 | -102.21652 | 33438 ft | 407 kts | 268° |
| 2026-05-05 04:57 | 35.22008 | -102.28545 | 33441 ft | 407 kts | 268° |
| 2026-05-05 04:58 | 35.21812 | -102.35477 | 33450 ft | 407 kts | 268° |
| 2026-05-05 04:58 | 35.21612 | -102.42400 | 33462 ft | 407 kts | 268° |
| 2026-05-05 04:59 | 35.21410 | -102.49278 | 33462 ft | 406 kts | 268° |
| 2026-05-05 04:59 | 35.21203 | -102.56194 | 33464 ft | 406 kts | 268° |
| 2026-05-05 05:00 | 35.20992 | -102.63090 | 33475 ft | 406 kts | 268° |
| 2026-05-05 05:00 | 35.20777 | -102.69989 | 33477 ft | 406 kts | 267° |
| 2026-05-05 05:01 | 35.20558 | -102.76899 | 33481 ft | 406 kts | 267° |
| 2026-05-05 05:01 | 35.20336 | -102.83794 | 33487 ft | 406 kts | 267° |
| 2026-05-05 05:02 | 35.20111 | -102.90650 | 33482 ft | 406 kts | 267° |
| 2026-05-05 05:02 | 35.19881 | -102.97550 | 33483 ft | 405 kts | 267° |
| 2026-05-05 05:03 | 35.19647 | -103.04448 | 33480 ft | 405 kts | 267° |
| 2026-05-05 05:03 | 35.19408 | -103.11345 | 33480 ft | 405 kts | 267° |
| 2026-05-05 05:04 | 35.19169 | -103.18180 | 33490 ft | 405 kts | 267° |
| 2026-05-05 05:04 | 35.18923 | -103.25072 | 33509 ft | 405 kts | 266° |
| 2026-05-05 05:05 | 35.18674 | -103.31961 | 33536 ft | 405 kts | 266° |
| 2026-05-05 05:05 | 35.18421 | -103.38801 | 33561 ft | 405 kts | 266° |
| 2026-05-05 05:06 | 35.18165 | -103.45680 | 33596 ft | 405 kts | 266° |
| 2026-05-05 05:06 | 35.17903 | -103.52566 | 33613 ft | 405 kts | 266° |
| 2026-05-05 05:07 | 35.17639 | -103.59450 | 33608 ft | 405 kts | 266° |
| 2026-05-05 05:07 | 35.17370 | -103.66328 | 33611 ft | 405 kts | 266° |
| 2026-05-05 05:08 | 35.17097 | -103.73215 | 33599 ft | 405 kts | 266° |
| 2026-05-05 05:08 | 35.16822 | -103.80056 | 33572 ft | 405 kts | 266° |
| 2026-05-05 05:09 | 35.16541 | -103.86946 | 33541 ft | 406 kts | 266° |
| 2026-05-05 05:09 | 35.16256 | -103.93837 | 33502 ft | 406 kts | 266° |
| 2026-05-05 05:10 | 35.15967 | -104.00739 | 33481 ft | 406 kts | 266° |
| 2026-05-05 05:10 | 35.15675 | -104.07629 | 33467 ft | 406 kts | 266° |
| 2026-05-05 05:11 | 35.15378 | -104.14521 | 33462 ft | 406 kts | 265° |
| 2026-05-05 05:11 | 35.15078 | -104.21395 | 33460 ft | 407 kts | 265° |
| 2026-05-05 05:12 | 35.14773 | -104.28306 | 33465 ft | 408 kts | 265° |
| 2026-05-05 05:12 | 35.14462 | -104.35240 | 33497 ft | 408 kts | 265° |
| 2026-05-05 05:13 | 35.14151 | -104.42126 | 33527 ft | 409 kts | 265° |
| 2026-05-05 05:13 | 35.13832 | -104.49067 | 33554 ft | 409 kts | 265° |
| 2026-05-05 05:14 | 35.13509 | -104.56023 | 33575 ft | 409 kts | 265° |
| 2026-05-05 05:14 | 35.13182 | -104.62971 | 33588 ft | 410 kts | 265° |
| 2026-05-05 05:15 | 35.12850 | -104.69937 | 33590 ft | 411 kts | 265° |
| 2026-05-05 05:15 | 35.12516 | -104.76870 | 33581 ft | 411 kts | 265° |
| 2026-05-05 05:16 | 35.12175 | -104.83856 | 33555 ft | 413 kts | 265° |
| 2026-05-05 05:16 | 35.11830 | -104.90857 | 33535 ft | 413 kts | 264° |
| 2026-05-05 05:17 | 35.11478 | -104.97896 | 33516 ft | 414 kts | 264° |
| 2026-05-05 05:17 | 35.11138 | -105.04928 | 33499 ft | 415 kts | 265° |
| 2026-05-05 05:18 | 35.10925 | -105.11935 | 33512 ft | 416 kts | 265° |
| 2026-05-05 05:18 | 35.10697 | -105.18987 | 33528 ft | 416 kts | 265° |
| 2026-05-05 05:19 | 35.10469 | -105.26054 | 33541 ft | 417 kts | 265° |
| 2026-05-05 05:19 | 35.10235 | -105.33136 | 33554 ft | 417 kts | 265° |
| 2026-05-05 05:20 | 35.09998 | -105.40211 | 33572 ft | 417 kts | 265° |
| 2026-05-05 05:20 | 35.09756 | -105.47286 | 33592 ft | 416 kts | 265° |
| 2026-05-05 05:21 | 35.09510 | -105.54352 | 33600 ft | 416 kts | 265° |
| 2026-05-05 05:21 | 35.09261 | -105.61401 | 33605 ft | 415 kts | 265° |
| 2026-05-05 05:22 | 35.09009 | -105.68416 | 33623 ft | 415 kts | 264° |
| 2026-05-05 05:22 | 35.08752 | -105.75448 | 33626 ft | 414 kts | 264° |
| 2026-05-05 05:23 | 35.08491 | -105.82486 | 33627 ft | 414 kts | 264° |
| 2026-05-05 05:23 | 35.08227 | -105.89488 | 33622 ft | 414 kts | 264° |
| 2026-05-05 05:24 | 35.07959 | -105.96511 | 33619 ft | 414 kts | 264° |
| 2026-05-05 05:24 | 35.07686 | -106.03535 | 33623 ft | 414 kts | 264° |
| 2026-05-05 05:25 | 35.07409 | -106.10566 | 33623 ft | 414 kts | 264° |
| 2026-05-05 05:25 | 35.07128 | -106.17584 | 33622 ft | 413 kts | 264° |
| 2026-05-05 05:26 | 35.06846 | -106.24551 | 33658 ft | 412 kts | 264° |
| 2026-05-05 05:26 | 35.06558 | -106.31532 | 33694 ft | 411 kts | 264° |
| 2026-05-05 05:27 | 35.06267 | -106.38518 | 33729 ft | 410 kts | 264° |
| 2026-05-05 05:27 | 35.05827 | -106.48883 | 33787 ft | 409 kts | 264° |
| 2026-05-05 05:28 | 35.05527 | -106.55827 | 33789 ft | 409 kts | 264° |
| 2026-05-05 05:28 | 35.05224 | -106.62760 | 33793 ft | 409 kts | 263° |
| 2026-05-05 05:29 | 35.04917 | -106.69696 | 33789 ft | 410 kts | 263° |
| 2026-05-05 05:29 | 35.04607 | -106.76601 | 33811 ft | 410 kts | 263° |
| 2026-05-05 05:30 | 35.04332 | -106.83572 | 33804 ft | 411 kts | 265° |
| 2026-05-05 05:30 | 35.04166 | -106.90555 | 33779 ft | 411 kts | 264° |
| 2026-05-05 05:31 | 35.03990 | -106.97547 | 33732 ft | 412 kts | 264° |
| 2026-05-05 05:31 | 35.03806 | -107.04570 | 33689 ft | 418 kts | 267° |
| 2026-05-05 05:32 | 35.03632 | -107.11662 | 33646 ft | 418 kts | 267° |
| 2026-05-05 05:32 | 35.03441 | -107.18722 | 33602 ft | 419 kts | 267° |
| 2026-05-05 05:33 | 35.03250 | -107.25836 | 33578 ft | 419 kts | 267° |
| 2026-05-05 05:33 | 35.03052 | -107.32945 | 33585 ft | 419 kts | 267° |
| 2026-05-05 05:34 | 35.02851 | -107.40062 | 33589 ft | 419 kts | 267° |
| 2026-05-05 05:34 | 35.02646 | -107.47183 | 33588 ft | 419 kts | 266° |
| 2026-05-05 05:35 | 35.02437 | -107.54269 | 33631 ft | 418 kts | 266° |
| 2026-05-05 05:35 | 35.02223 | -107.61394 | 33691 ft | 420 kts | 266° |
| 2026-05-05 05:36 | 35.02004 | -107.68524 | 33737 ft | 420 kts | 266° |
| 2026-05-05 05:36 | 35.01936 | -107.70734 | 33765 ft | 420 kts | 266° |